Time;durP1;ratioP1;P1;durP2;ratioP2;P2;SDS_P1;SDS_P2;PMS_P1;PMS_P2;Temp;Humidity;BMP_temperature;BMP_pressure;BME280_temperature;BME280_humidity;BME280_pressure;Samples;Min_cycle;Max_cycle;Signal;HPM_P1;HPM_P2
2022/08/30 00:02:55;;;;;;;7.03;6.53;;;18.60;99.90;;;;;;5076418;28;20209;-48
2022/08/30 00:05:23;;;;;;;7.40;6.90;;;18.50;99.90;;;;;;5076065;28;20212;-48
2022/08/30 00:07:50;;;;;;;6.77;5.83;;;18.40;99.90;;;;;;5077121;28;20197;-48
2022/08/30 00:10:18;;;;;;;6.20;5.80;;;18.40;99.90;;;;;;5076215;28;20836;-48
2022/08/30 00:12:44;;;;;;;6.63;6.10;;;18.40;99.90;;;;;;5074130;28;20205;-48
2022/08/30 00:15:13;;;;;;;6.83;6.33;;;18.40;99.90;;;;;;5075137;28;20197;-49
2022/08/30 00:17:42;;;;;;;7.77;7.07;;;18.30;99.90;;;;;;5075060;28;20703;-49
2022/08/30 00:20:12;;;;;;;7.00;6.50;;;18.40;99.90;;;;;;5073970;28;20580;-49
2022/08/30 00:22:40;;;;;;;6.63;6.23;;;18.40;99.90;;;;;;5074164;28;20201;-48
2022/08/30 00:25:08;;;;;;;7.30;6.80;;;18.40;99.90;;;;;;5072374;28;20657;-48
2022/08/30 00:27:35;;;;;;;7.50;7.00;;;18.30;99.90;;;;;;5072510;28;20209;-48
2022/08/30 00:30:04;;;;;;;8.07;7.33;;;18.30;99.90;;;;;;5067960;28;20201;-48
2022/08/30 00:32:32;;;;;;;9.10;8.13;;;18.30;99.90;;;;;;5072686;28;20651;-49
2022/08/30 00:34:59;;;;;;;7.23;6.83;;;18.10;99.90;;;;;;5072726;28;20649;-48
2022/08/30 00:37:26;;;;;;;7.83;7.13;;;18.10;99.90;;;;;;5072817;28;20243;-49
2022/08/30 00:39:53;;;;;;;8.27;7.77;;;18.10;99.90;;;;;;5071611;28;20214;-49
2022/08/30 00:42:21;;;;;;;8.20;7.47;;;18.10;99.90;;;;;;5072860;28;20251;-49
2022/08/30 00:44:49;;;;;;;8.47;7.87;;;18.00;99.90;;;;;;5071587;28;20229;-48
2022/08/30 00:47:17;;;;;;;9.27;8.50;;;18.00;99.90;;;;;;5073449;28;20291;-49
2022/08/30 00:49:49;;;;;;;7.93;7.23;;;18.00;99.90;;;;;;5073377;28;20213;-49
2022/08/30 00:52:18;;;;;;;9.07;8.47;;;18.00;99.90;;;;;;5072576;28;20720;-49
2022/08/30 00:54:47;;;;;;;9.70;9.00;;;18.00;99.90;;;;;;5066381;28;20197;-47
2022/08/30 00:57:15;;;;;;;7.93;7.33;;;18.00;99.90;;;;;;5073281;28;20209;-48
2022/08/30 00:59:44;;;;;;;8.20;7.60;;;18.00;99.90;;;;;;5070405;28;20218;-49
2022/08/30 01:02:12;;;;;;;8.90;8.20;;;18.00;99.90;;;;;;5073336;28;20270;-49
2022/08/30 01:04:42;;;;;;;9.30;8.50;;;18.00;99.90;;;;;;5071764;28;20231;-49
2022/08/30 01:07:10;;;;;;;8.73;8.03;;;17.90;99.90;;;;;;5073322;28;20275;-48
2022/08/30 01:09:38;;;;;;;8.97;8.23;;;17.90;99.90;;;;;;5071017;28;20622;-48
2022/08/30 01:12:06;;;;;;;9.67;8.70;;;17.90;99.90;;;;;;5072721;28;20197;-48
2022/08/30 01:14:34;;;;;;;9.90;9.20;;;17.90;99.90;;;;;;5068646;28;20247;-48
2022/08/30 01:17:01;;;;;;;9.90;9.10;;;17.90;99.90;;;;;;5071191;28;20678;-49
2022/08/30 01:19:36;;;;;;;10.60;9.43;;;17.90;99.90;;;;;;5072977;28;20230;-49
2022/08/30 01:22:08;;;;;;;10.30;9.50;;;17.90;99.90;;;;;;5072993;28;20261;-49
2022/08/30 01:24:37;;;;;;;9.97;8.93;;;17.90;99.90;;;;;;5071255;28;20251;-49
2022/08/30 01:27:04;;;;;;;10.33;9.07;;;17.90;99.90;;;;;;5063689;28;20642;-47
2022/08/30 01:29:31;;;;;;;9.70;8.83;;;17.90;99.90;;;;;;5070170;28;20197;-48
2022/08/30 01:31:58;;;;;;;8.30;7.67;;;17.90;99.90;;;;;;5071708;28;20201;-48
2022/08/30 01:34:25;;;;;;;8.77;7.97;;;17.90;99.90;;;;;;5072320;28;20270;-49
2022/08/30 01:36:52;;;;;;;8.57;7.90;;;17.80;99.90;;;;;;5071536;28;20294;-49
2022/08/30 01:39:19;;;;;;;7.70;7.23;;;17.80;99.90;;;;;;5071318;28;20643;-48
2022/08/30 01:41:48;;;;;;;8.67;7.97;;;17.80;99.90;;;;;;5072228;28;20197;-48
2022/08/30 01:44:15;;;;;;;7.90;7.40;;;17.80;99.90;;;;;;5071334;28;20225;-48
2022/08/30 01:46:45;;;;;;;8.07;7.53;;;17.80;99.90;;;;;;5071266;28;20281;-48
2022/08/30 01:49:14;;;;;;;9.20;8.43;;;17.80;99.90;;;;;;5072166;28;20560;-48
2022/08/30 01:51:42;;;;;;;8.50;7.80;;;17.80;99.90;;;;;;5072197;28;20228;-49
2022/08/30 01:54:10;;;;;;;8.60;7.70;;;17.80;99.90;;;;;;5069762;28;20247;-48
2022/08/30 01:56:37;;;;;;;7.87;7.30;;;17.70;99.90;;;;;;5072044;28;20216;-48
2022/08/30 01:59:05;;;;;;;8.10;7.50;;;17.70;99.90;;;;;;5069660;28;20213;-48
2022/08/30 02:01:34;;;;;;;9.27;8.57;;;17.60;99.90;;;;;;5067062;28;20224;-48
2022/08/30 02:04:01;;;;;;;9.87;8.87;;;17.60;99.90;;;;;;5065615;28;20280;-49
2022/08/30 02:06:28;;;;;;;8.63;8.03;;;17.50;99.90;;;;;;5071439;28;20257;-47
2022/08/30 02:08:55;;;;;;;9.77;8.97;;;17.50;99.90;;;;;;5071639;28;20205;-49
2022/08/30 02:11:22;;;;;;;8.97;8.27;;;17.50;99.90;;;;;;5072047;28;20235;-48
2022/08/30 02:13:49;;;;;;;7.73;7.23;;;17.50;99.90;;;;;;5068174;28;20257;-48
2022/08/30 02:16:21;;;;;;;9.20;8.53;;;17.50;99.90;;;;;;5070744;28;20213;-48
2022/08/30 02:18:49;;;;;;;8.97;8.33;;;17.50;99.90;;;;;;5064284;28;20210;-48
2022/08/30 02:21:16;;;;;;;9.10;8.20;;;17.50;99.90;;;;;;5070887;28;20201;-48
2022/08/30 02:23:44;;;;;;;8.40;7.83;;;17.50;99.90;;;;;;5068762;28;20193;-48
2022/08/30 02:26:11;;;;;;;8.27;7.47;;;17.50;99.90;;;;;;5070417;28;20225;-48
2022/08/30 02:28:38;;;;;;;9.57;8.63;;;17.50;99.90;;;;;;5068613;28;20250;-50
2022/08/30 02:31:05;;;;;;;8.40;7.83;;;17.50;99.90;;;;;;5071430;28;20201;-49
2022/08/30 02:33:34;;;;;;;8.47;7.87;;;17.50;99.90;;;;;;5070402;28;20201;-48
2022/08/30 02:36:01;;;;;;;9.70;9.00;;;17.40;99.90;;;;;;5070392;28;20290;-48
2022/08/30 02:38:28;;;;;;;10.60;9.60;;;17.40;99.90;;;;;;5071405;28;20274;-48
2022/08/30 02:40:55;;;;;;;9.53;8.83;;;17.40;99.90;;;;;;5071127;28;20196;-48
2022/08/30 02:43:22;;;;;;;10.40;9.33;;;17.30;99.90;;;;;;5070162;28;20418;-48
2022/08/30 02:45:49;;;;;;;8.03;7.53;;;17.30;99.90;;;;;;5071048;28;20567;-49
2022/08/30 02:48:17;;;;;;;8.97;8.27;;;17.20;99.90;;;;;;5071303;28;20658;-48
2022/08/30 02:50:49;;;;;;;9.60;8.63;;;17.30;99.90;;;;;;5067486;28;20293;-48
2022/08/30 02:53:16;;;;;;;11.13;10.13;;;17.30;99.90;;;;;;5069798;28;20209;-48
2022/08/30 02:55:43;;;;;;;9.73;8.87;;;17.30;99.90;;;;;;5065913;28;20270;-48
2022/08/30 02:58:13;;;;;;;9.17;8.47;;;17.40;99.90;;;;;;5067766;28;20270;-48
2022/08/30 03:00:42;;;;;;;8.70;7.93;;;17.30;99.90;;;;;;5067509;28;20313;-49
2022/08/30 03:03:12;;;;;;;9.80;9.00;;;17.20;99.90;;;;;;5068092;28;20213;-48
2022/08/30 03:05:39;;;;;;;9.57;8.77;;;17.20;99.90;;;;;;5064460;28;20271;-49
2022/08/30 03:08:08;;;;;;;9.37;8.77;;;17.20;99.90;;;;;;5060771;28;20205;-48
2022/08/30 03:10:37;;;;;;;9.47;8.67;;;17.20;99.90;;;;;;5066594;28;20208;-48
2022/08/30 03:13:06;;;;;;;8.77;8.17;;;17.20;99.90;;;;;;5070008;28;20730;-48
2022/08/30 03:15:34;;;;;;;8.80;8.10;;;17.20;99.90;;;;;;5068566;28;20220;-49
2022/08/30 03:18:01;;;;;;;8.50;7.97;;;17.20;99.90;;;;;;5069786;28;20197;-48
2022/08/30 03:20:28;;;;;;;8.77;8.10;;;17.20;99.90;;;;;;5070315;28;20197;-49
2022/08/30 03:22:56;;;;;;;8.83;8.10;;;17.20;99.90;;;;;;5067161;28;20213;-48
2022/08/30 03:25:24;;;;;;;9.40;8.57;;;17.30;99.90;;;;;;5067927;28;20871;-49
2022/08/30 03:27:51;;;;;;;9.83;8.83;;;17.30;99.90;;;;;;5067785;28;20651;-49
2022/08/30 03:30:20;;;;;;;8.50;7.67;;;17.20;99.90;;;;;;5070256;28;20204;-49
2022/08/30 03:32:47;;;;;;;9.17;8.27;;;17.30;99.90;;;;;;5070029;28;20205;-49
2022/08/30 03:35:16;;;;;;;8.83;8.23;;;17.20;99.90;;;;;;5069733;28;20197;-49
2022/08/30 03:37:43;;;;;;;9.30;8.67;;;17.30;99.90;;;;;;5057237;28;20224;-48
2022/08/30 03:40:12;;;;;;;12.50;8.10;;;17.20;99.90;;;;;;5070161;28;20724;-49
2022/08/30 03:42:41;;;;;;;9.13;8.23;;;17.20;99.90;;;;;;5068900;28;20733;-49
2022/08/30 03:45:09;;;;;;;8.57;8.00;;;17.10;99.90;;;;;;5069572;28;20730;-50
2022/08/30 03:47:36;;;;;;;10.53;9.63;;;17.10;99.90;;;;;;5070157;28;20221;-49
2022/08/30 03:50:04;;;;;;;9.10;8.40;;;17.00;99.90;;;;;;5062171;28;20198;-49
2022/08/30 03:52:31;;;;;;;9.27;8.50;;;17.00;99.90;;;;;;5065821;28;20197;-50
2022/08/30 03:54:59;;;;;;;9.73;9.00;;;16.90;99.90;;;;;;5070076;28;20623;-50
2022/08/30 03:57:26;;;;;;;9.53;8.83;;;16.90;99.90;;;;;;5068710;28;20223;-50
2022/08/30 03:59:55;;;;;;;8.67;7.87;;;16.80;99.90;;;;;;5069804;28;20216;-49
2022/08/30 04:02:22;;;;;;;9.17;8.37;;;16.70;99.90;;;;;;5071318;28;20228;-48
2022/08/30 04:04:49;;;;;;;9.27;8.67;;;16.60;99.90;;;;;;5063996;28;20205;-49
2022/08/30 04:07:17;;;;;;;8.20;7.60;;;16.60;99.90;;;;;;5062282;28;20580;-49
2022/08/30 04:09:45;;;;;;;9.20;8.50;;;16.60;99.90;;;;;;5064957;28;20576;-49
2022/08/30 04:12:12;;;;;;;9.63;8.93;;;16.50;99.90;;;;;;5065211;28;20197;-50
2022/08/30 04:14:39;;;;;;;8.70;7.93;;;16.50;99.90;;;;;;5057606;28;20695;-49
2022/08/30 04:17:07;;;;;;;8.53;7.73;;;16.50;99.90;;;;;;5064738;28;20221;-49
2022/08/30 04:19:34;;;;;;;9.03;8.33;;;16.50;99.90;;;;;;5059827;28;20198;-49
2022/08/30 04:22:01;;;;;;;9.70;9.00;;;16.50;99.90;;;;;;5059929;28;20194;-49
2022/08/30 04:24:28;;;;;;;9.30;8.63;;;16.50;99.90;;;;;;5066384;28;20197;-49
2022/08/30 04:26:55;;;;;;;10.37;9.33;;;16.40;99.90;;;;;;5060535;28;20316;-49
2022/08/30 04:29:22;;;;;;;10.80;10.03;;;16.40;99.90;;;;;;5072825;28;20197;-50
2022/08/30 04:31:50;;;;;;;9.67;8.80;;;16.40;99.90;;;;;;5066531;28;20213;-50
2022/08/30 04:34:18;;;;;;;8.80;8.10;;;16.40;99.90;;;;;;5062896;28;20716;-49
2022/08/30 04:36:45;;;;;;;11.37;10.27;;;16.40;99.90;;;;;;5060722;28;20220;-49
2022/08/30 04:39:12;;;;;;;10.03;9.17;;;16.40;99.90;;;;;;5058328;28;20705;-50
2022/08/30 04:41:39;;;;;;;10.37;9.37;;;16.40;99.90;;;;;;5053959;28;20675;-49
2022/08/30 04:44:07;;;;;;;10.03;9.13;;;16.40;99.90;;;;;;5053710;28;20194;-49
2022/08/30 04:46:36;;;;;;;10.87;9.70;;;16.50;99.90;;;;;;5053600;28;20214;-49
2022/08/30 04:49:05;;;;;;;10.80;9.90;;;16.50;99.90;;;;;;5060618;28;20714;-49
2022/08/30 04:51:33;;;;;;;9.77;8.97;;;16.60;99.90;;;;;;5058205;28;20741;-50
2022/08/30 04:54:00;;;;;;;9.90;9.00;;;16.60;99.90;;;;;;5053492;28;20243;-49
2022/08/30 04:56:27;;;;;;;10.37;9.37;;;16.70;99.90;;;;;;5056987;28;20213;-50
2022/08/30 04:58:55;;;;;;;10.77;9.97;;;16.70;99.90;;;;;;5054632;28;20233;-49
2022/08/30 05:01:25;;;;;;;10.60;9.57;;;16.60;99.90;;;;;;5054191;28;20253;-50
2022/08/30 05:03:54;;;;;;;10.03;9.10;;;16.70;99.90;;;;;;5060516;28;20197;-49
2022/08/30 05:06:22;;;;;;;11.13;8.40;;;16.70;99.90;;;;;;5065018;28;20690;-49
2022/08/30 05:08:51;;;;;;;9.63;8.83;;;16.70;99.90;;;;;;5064628;28;20223;-49
2022/08/30 05:11:18;;;;;;;10.40;9.47;;;16.80;99.90;;;;;;5073025;28;20228;-49
2022/08/30 05:13:46;;;;;;;8.43;7.73;;;16.80;99.90;;;;;;5054917;28;20292;-49
2022/08/30 05:16:16;;;;;;;9.63;8.47;;;16.90;99.90;;;;;;5057983;28;20337;-48
2022/08/30 05:18:43;;;;;;;13.93;8.73;;;17.00;99.90;;;;;;5057484;28;20583;-50
2022/08/30 05:21:12;;;;;;;9.43;8.53;;;17.10;99.90;;;;;;5063505;28;20201;-48
2022/08/30 05:23:40;;;;;;;13.93;10.20;;;17.20;99.90;;;;;;5055222;28;20255;-49
2022/08/30 05:26:11;;;;;;;12.17;11.03;;;17.30;99.90;;;;;;5053844;28;20217;-50
2022/08/30 05:28:38;;;;;;;10.50;9.00;;;17.40;99.90;;;;;;5052066;28;20198;-49
2022/08/30 05:31:13;;;;;;;10.07;9.17;;;17.50;99.90;;;;;;5052138;28;20293;-49
2022/08/30 05:33:40;;;;;;;10.33;9.43;;;17.60;99.90;;;;;;5052455;28;20201;-48
2022/08/30 05:36:08;;;;;;;10.00;8.90;;;17.80;99.90;;;;;;5068749;28;20240;-49
2022/08/30 05:38:35;;;;;;;10.23;9.43;;;18.00;99.90;;;;;;5055786;28;20201;-49
2022/08/30 05:41:02;;;;;;;10.13;9.13;;;18.40;99.90;;;;;;5055182;28;20197;-49
2022/08/30 05:43:31;;;;;;;11.47;10.50;;;18.80;99.90;;;;;;5052813;28;20194;-51
2022/08/30 05:46:00;;;;;;;9.13;8.43;;;19.30;99.90;;;;;;5051521;28;20249;-50
2022/08/30 05:48:27;;;;;;;9.73;9.00;;;19.70;99.90;;;;;;5060425;28;20329;-49
2022/08/30 05:51:03;;;;;;;10.27;9.27;;;20.40;99.90;;;;;;5059489;28;21615;-49
2022/08/30 05:53:30;;;;;;;8.40;7.70;;;21.20;99.90;;;;;;5060903;28;20201;-49
2022/08/30 05:55:57;;;;;;;9.63;8.30;;;22.00;99.90;;;;;;5054333;28;20217;-49
2022/08/30 05:58:24;;;;;;;8.50;7.87;;;23.00;99.90;;;;;;5055353;28;20198;-50
2022/08/30 06:00:53;;;;;;;8.10;7.50;;;23.50;99.90;;;;;;5056349;28;20939;-50
2022/08/30 06:03:20;;;;;;;8.07;7.37;;;24.20;99.90;;;;;;5063966;28;20617;-50
2022/08/30 06:05:47;;;;;;;11.70;7.43;;;24.90;99.90;;;;;;5055067;28;20217;-49
2022/08/30 06:08:14;;;;;;;9.00;8.30;;;25.30;99.90;;;;;;5060054;28;20255;-49
2022/08/30 06:10:41;;;;;;;7.37;6.57;;;25.70;99.90;;;;;;5062144;28;20670;-48
2022/08/30 06:13:09;;;;;;;6.87;6.37;;;26.30;99.90;;;;;;5069113;28;20197;-49
2022/08/30 06:15:36;;;;;;;7.00;6.60;;;26.70;99.90;;;;;;5056192;28;20209;-49
2022/08/30 06:18:05;;;;;;;6.82;6.25;;;27.10;99.90;;;;;;5069146;28;20560;-49
2022/08/30 06:20:32;;;;;;;5.38;5.07;;;27.60;99.90;;;;;;5061813;28;20942;-49
2022/08/30 06:22:59;;;;;;;6.65;5.75;;;27.80;99.90;;;;;;5057843;28;20193;-49
2022/08/30 06:25:26;;;;;;;6.43;5.85;;;28.30;99.90;;;;;;5058286;28;20205;-49
2022/08/30 06:27:53;;;;;;;7.35;6.82;;;28.70;99.90;;;;;;5064116;28;20638;-50
2022/08/30 06:30:20;;;;;;;6.78;6.38;;;29.20;99.90;;;;;;5061173;28;20610;-50
2022/08/30 06:32:47;;;;;;;5.90;5.40;;;29.50;99.90;;;;;;5056263;28;20240;-50
2022/08/30 06:35:15;;;;;;;6.18;5.63;;;29.60;99.90;;;;;;5063002;28;20201;-50
2022/08/30 06:37:42;;;;;;;7.03;6.32;;;29.00;99.90;;;;;;5058693;28;20225;-50
2022/08/30 06:40:12;;;;;;;5.53;5.30;;;27.70;99.90;;;;;;5053575;28;20197;-49
2022/08/30 06:42:39;;;;;;;6.50;5.78;;;26.60;99.90;;;;;;5061556;28;20666;-49
2022/08/30 06:45:07;;;;;;;7.18;6.68;;;26.80;99.90;;;;;;5053857;28;20331;-49
2022/08/30 06:47:34;;;;;;;6.15;5.75;;;27.30;99.90;;;;;;5060827;28;20213;-48
2022/08/30 06:50:01;;;;;;;5.60;5.40;;;27.90;99.90;;;;;;5061135;28;20200;-50
2022/08/30 06:52:29;;;;;;;6.00;5.60;;;27.80;99.90;;;;;;5062143;28;20230;-50
2022/08/30 06:54:57;;;;;;;5.15;4.95;;;27.10;99.90;;;;;;5062155;28;20220;-50
2022/08/30 06:57:25;;;;;;;7.05;6.43;;;27.50;99.90;;;;;;5058663;28;20236;-49
2022/08/30 06:59:56;;;;;;;5.85;5.55;;;27.10;99.90;;;;;;5064594;28;20221;-49
2022/08/30 07:02:23;;;;;;;6.97;6.55;;;27.90;99.90;;;;;;5050631;28;20204;-49
2022/08/30 07:04:50;;;;;;;6.72;6.15;;;28.40;99.90;;;;;;5050231;28;20225;-50
2022/08/30 07:07:17;;;;;;;5.88;5.57;;;29.00;99.90;;;;;;5050581;28;20217;-51
2022/08/30 07:09:46;;;;;;;7.20;6.78;;;28.70;99.90;;;;;;5050490;28;20973;-49
2022/08/30 07:12:14;;;;;;;6.15;5.75;;;28.80;99.90;;;;;;5062002;28;20225;-50
2022/08/30 07:14:42;;;;;;;7.03;6.45;;;29.20;99.90;;;;;;5059577;28;20201;-51
2022/08/30 07:19:50;;;;;;;7.35;6.72;;;30.10;99.90;;;;;;5051296;28;20205;-51
2022/08/30 07:22:36;;;;;;;6.85;6.15;;;30.40;99.90;;;;;;5059174;28;20242;-50
2022/08/30 07:25:05;;;;;;;5.88;5.57;;;30.80;99.90;;;;;;5059187;28;20616;-51
2022/08/30 07:27:32;;;;;;;6.95;6.53;;;31.20;99.90;;;;;;5064972;28;20217;-50
2022/08/30 07:30:01;;;;;;;5.75;5.35;;;31.20;99.90;;;;;;5073499;28;20674;-50
2022/08/30 07:32:28;;;;;;;6.03;5.72;;;31.30;99.90;;;;;;5074902;28;20193;-50
2022/08/30 07:34:55;;;;;;;6.43;5.93;;;31.60;99.90;;;;;;5074693;28;20740;-51
2022/08/30 07:37:23;;;;;;;6.38;6.00;;;31.10;99.90;;;;;;5073614;28;20221;-51
2022/08/30 07:39:50;;;;;;;5.82;5.53;;;31.30;99.90;;;;;;5073607;28;20208;-50
2022/08/30 07:42:18;;;;;;;5.93;5.63;;;31.70;99.90;;;;;;5074821;28;20231;-51
2022/08/30 07:44:45;;;;;;;6.25;5.70;;;32.10;99.90;;;;;;5074736;28;20629;-52
2022/08/30 07:47:12;;;;;;;4.72;4.53;;;31.00;99.90;;;;;;5072467;28;20271;-50
2022/08/30 07:49:39;;;;;;;5.50;5.25;;;30.00;99.90;;;;;;5072584;28;20205;-50
2022/08/30 07:52:06;;;;;;;5.57;5.32;;;29.20;99.90;;;;;;5074385;28;20574;-50
2022/08/30 07:54:33;;;;;;;5.65;5.32;;;28.40;99.90;;;;;;5074060;28;20254;-49
2022/08/30 07:57:00;;;;;;;6.25;5.75;;;27.80;99.90;;;;;;5074446;28;20217;-51
2022/08/30 07:59:28;;;;;;;7.55;6.85;;;28.20;99.90;;;;;;5074203;28;20683;-50
2022/08/30 08:01:56;;;;;;;6.10;5.70;;;28.30;99.90;;;;;;5072998;28;20197;-50
2022/08/30 08:04:23;;;;;;;5.10;4.88;;;29.30;99.90;;;;;;5068651;28;20620;-52
2022/08/30 08:06:49;;;;;;;6.57;6.13;;;30.30;99.90;;;;;;5074162;28;20261;-51
2022/08/30 08:09:17;;;;;;;6.55;5.10;;;30.70;99.90;;;;;;5074361;28;20209;-50
2022/08/30 08:11:44;;;;;;;4.32;4.07;;;31.40;99.90;;;;;;5074410;28;20201;-51
2022/08/30 08:14:11;;;;;;;5.63;5.35;;;32.40;99.90;;;;;;5074071;28;20639;-50
2022/08/30 08:16:41;;;;;;;5.28;4.75;;;32.90;99.90;;;;;;5074108;28;20787;-50
2022/08/30 08:19:08;;;;;;;5.22;4.75;;;33.00;99.70;;;;;;5073261;28;20575;-50
2022/08/30 08:21:36;;;;;;;5.00;4.88;;;33.20;99.90;;;;;;5073279;28;20247;-50
2022/08/30 08:24:03;;;;;;;5.53;5.20;;;33.20;99.90;;;;;;5066008;28;20193;-50
2022/08/30 08:26:33;;;;;;;7.43;6.57;;;33.00;99.70;;;;;;5074139;28;20270;-50
2022/08/30 08:29:00;;;;;;;5.15;4.85;;;32.30;99.90;;;;;;5074018;28;20285;-50
2022/08/30 08:31:28;;;;;;;5.10;4.80;;;32.40;99.90;;;;;;5074014;28;20251;-49
2022/08/30 08:33:57;;;;;;;5.65;5.18;;;32.40;99.90;;;;;;5073969;28;20212;-50
2022/08/30 08:36:24;;;;;;;5.80;5.40;;;33.20;99.90;;;;;;5072659;28;20217;-49
2022/08/30 08:38:51;;;;;;;7.00;5.70;;;33.50;98.90;;;;;;5073152;28;20251;-50
2022/08/30 08:41:36;;;;;;;5.57;5.07;;;33.50;99.10;;;;;;5073840;28;20197;-50
2022/08/30 08:44:13;;;;;;;4.65;4.45;;;33.00;99.90;;;;;;5073410;28;20201;-50
2022/08/30 08:46:49;;;;;;;4.82;4.55;;;33.50;97.60;;;;;;5073283;28;20734;-50
2022/08/30 08:49:17;;;;;;;4.57;4.40;;;33.50;97.10;;;;;;5073698;28;20217;-50
2022/08/30 08:54:36;;;;;;;4.45;4.30;;;33.10;98.70;;;;;;5073172;28;20207;-51
2022/08/30 08:57:03;;;;;;;6.10;5.22;;;33.10;99.10;;;;;;5073623;28;20257;-50
2022/08/30 08:59:31;;;;;;;5.18;4.72;;;33.10;98.90;;;;;;5073355;28;20639;-51
2022/08/30 09:02:01;;;;;;;4.63;4.40;;;32.60;98.70;;;;;;5073264;28;20646;-50
2022/08/30 09:04:35;;;;;;;5.63;5.38;;;33.00;98.40;;;;;;5073115;28;20197;-50
2022/08/30 09:07:05;;;;;;;5.22;4.93;;;32.80;98.20;;;;;;5070720;28;20310;-51
2022/08/30 09:09:34;;;;;;;5.57;5.00;;;33.00;98.50;;;;;;5069479;28;20189;-51
2022/08/30 09:12:01;;;;;;;5.53;5.30;;;33.00;98.30;;;;;;5073403;28;20263;-51
2022/08/30 09:14:35;;;;;;;4.72;4.43;;;32.70;97.60;;;;;;5072939;28;20197;-50
2022/08/30 09:17:04;;;;;;;5.15;4.88;;;32.80;99.40;;;;;;5072759;28;20293;-51
2022/08/30 09:19:42;;;;;;;4.65;4.50;;;32.70;99.40;;;;;;5072737;28;20266;-50
2022/08/30 09:22:19;;;;;;;5.10;4.90;;;33.00;97.80;;;;;;5072981;28;20501;-50
2022/08/30 09:24:48;;;;;;;5.20;4.78;;;33.20;97.90;;;;;;5065091;28;20693;-50
2022/08/30 09:27:19;;;;;;;5.03;4.78;;;33.20;98.30;;;;;;5065048;28;20710;-51
2022/08/30 09:29:52;;;;;;;4.93;4.72;;;33.60;98.00;;;;;;5072339;28;20193;-50
2022/08/30 09:32:31;;;;;;;4.85;4.65;;;33.40;99.20;;;;;;5072536;28;20237;-52
2022/08/30 09:35:00;;;;;;;4.53;4.32;;;33.20;99.20;;;;;;5072250;28;20570;-52
2022/08/30 09:37:35;;;;;;;5.68;5.07;;;33.20;98.10;;;;;;5072708;28;20370;-50
2022/08/30 09:40:10;;;;;;;5.38;5.07;;;33.40;97.30;;;;;;5071080;28;20196;-51
2022/08/30 09:42:37;;;;;;;5.63;5.32;;;33.60;98.10;;;;;;5072221;28;20243;-51
2022/08/30 09:45:10;;;;;;;4.85;4.60;;;33.20;99.40;;;;;;5072051;28;20281;-50
2022/08/30 09:47:40;;;;;;;5.03;4.72;;;33.20;98.70;;;;;;5071743;28;20588;-51
2022/08/30 09:50:11;;;;;;;5.35;5.03;;;33.20;99.30;;;;;;5071648;28;20201;-51
2022/08/30 09:52:49;;;;;;;5.95;5.75;;;33.40;98.20;;;;;;5072062;28;20244;-50
2022/08/30 09:55:26;;;;;;;5.57;5.38;;;33.00;98.60;;;;;;5068904;28;20634;-51
2022/08/30 09:58:03;;;;;;;5.47;5.22;;;32.30;98.00;;;;;;5070692;28;20258;-50
2022/08/30 10:00:33;;;;;;;5.30;4.80;;;32.20;98.30;;;;;;5072325;28;20208;-51
2022/08/30 10:03:12;;;;;;;4.35;4.25;;;32.70;98.10;;;;;;5071767;28;20197;-51
2022/08/30 10:05:49;;;;;;;5.22;4.97;;;32.60;97.70;;;;;;5071798;28;20286;-51
2022/08/30 10:08:21;;;;;;;5.70;5.32;;;32.40;96.50;;;;;;5071825;28;20217;-50
2022/08/30 10:10:52;;;;;;;9.63;7.07;;;32.80;97.70;;;;;;5071648;28;20738;-51
2022/08/30 10:13:42;;;;;;;8.05;6.88;;;32.30;99.60;;;;;;5069444;28;20197;-50
2022/08/30 10:16:19;;;;;;;7.43;6.93;;;31.70;99.90;;;;;;5064424;28;20213;-51
2022/08/30 10:18:56;;;;;;;7.45;6.97;;;31.50;99.90;;;;;;5071566;28;20197;-50
2022/08/30 10:21:33;;;;;;;7.30;6.85;;;31.70;99.90;;;;;;5071972;28;20205;-51
2022/08/30 10:24:05;;;;;;;7.65;7.10;;;31.00;99.90;;;;;;5071394;28;20197;-50
2022/08/30 10:26:36;;;;;;;7.20;6.72;;;30.30;99.90;;;;;;5071440;28;20221;-50
2022/08/30 10:29:08;;;;;;;6.97;6.57;;;29.80;99.90;;;;;;5070464;28;20260;-49
2022/08/30 10:31:41;;;;;;;6.03;5.63;;;29.40;99.90;;;;;;5071280;28;20702;-50
2022/08/30 10:34:14;;;;;;;6.03;5.68;;;29.40;99.90;;;;;;5071327;28;20236;-50
2022/08/30 10:36:45;;;;;;;6.25;5.95;;;29.30;99.90;;;;;;5071523;28;20635;-50
2022/08/30 10:39:17;;;;;;;7.90;7.30;;;29.40;99.90;;;;;;5071507;28;20197;-51
2022/08/30 10:41:49;;;;;;;7.35;7.05;;;29.20;99.90;;;;;;5065780;28;20201;-50
2022/08/30 10:44:21;;;;;;;6.85;6.45;;;28.90;99.90;;;;;;5071297;28;20589;-49
2022/08/30 10:47:06;;;;;;;8.10;7.25;;;28.90;99.90;;;;;;5069809;28;20217;-50
2022/08/30 10:49:39;;;;;;;7.40;6.88;;;29.20;99.90;;;;;;5071146;28;20239;-52
2022/08/30 10:52:20;;;;;;;7.65;7.25;;;29.60;99.90;;;;;;5071451;28;20213;-50
2022/08/30 10:54:51;;;;;;;7.75;7.25;;;30.10;99.90;;;;;;5069656;28;20270;-50
2022/08/30 10:57:19;;;;;;;6.15;5.85;;;30.50;99.90;;;;;;5056816;28;20293;-49
2022/08/30 10:59:51;;;;;;;6.68;6.28;;;30.40;99.90;;;;;;5058856;28;20200;-50
2022/08/30 11:02:48;;;;;;;7.18;6.78;;;30.30;99.90;;;;;;5061190;28;20197;-49
2022/08/30 11:05:34;;;;;;;6.60;6.30;;;29.80;99.90;;;;;;5055918;28;20259;-50
2022/08/30 11:08:15;;;;;;;7.38;6.95;;;29.70;99.90;;;;;;5054477;28;20233;-50
2022/08/30 11:10:50;;;;;;;6.75;6.45;;;29.40;99.90;;;;;;5057353;28;20611;-49
2022/08/30 11:13:23;;;;;;;7.60;6.78;;;29.10;99.90;;;;;;5054569;28;20292;-51
2022/08/30 11:15:57;;;;;;;7.03;6.72;;;28.90;99.90;;;;;;5051413;28;20287;-51
2022/08/30 11:18:27;;;;;;;6.32;6.03;;;29.00;99.90;;;;;;5050293;28;20286;-50
2022/08/30 11:21:17;;;;;;;6.15;5.55;;;29.10;99.90;;;;;;5063895;28;20284;-51
2022/08/30 11:24:07;;;;;;;7.22;6.63;;;29.40;99.90;;;;;;5049991;28;20252;-50
2022/08/30 11:26:56;;;;;;;6.35;6.05;;;29.60;99.90;;;;;;5052296;28;20594;-50
2022/08/30 11:29:39;;;;;;;7.82;7.20;;;29.60;99.90;;;;;;5061569;28;20304;-50
2022/08/30 11:32:56;;;;;;;7.00;6.60;;;29.80;99.90;;;;;;5061630;28;20197;-50
2022/08/30 11:35:39;;;;;;;7.43;7.03;;;29.90;99.90;;;;;;5068546;28;20258;-51
2022/08/30 11:38:43;;;;;;;7.07;6.68;;;29.80;99.90;;;;;;5067780;28;20201;-50
2022/08/30 11:41:28;;;;;;;6.72;6.25;;;29.50;99.90;;;;;;5051007;28;20198;-51
2022/08/30 11:43:56;;;;;;;6.90;6.57;;;29.50;99.90;;;;;;5059444;28;20233;-51
2022/08/30 11:46:38;;;;;;;6.22;5.78;;;29.20;99.90;;;;;;5060032;28;20296;-51
2022/08/30 11:49:38;;;;;;;7.32;6.68;;;29.00;99.90;;;;;;5066469;28;20217;-50
2022/08/30 11:52:15;;;;;;;6.53;6.13;;;28.90;99.90;;;;;;5071151;28;20230;-50
2022/08/30 11:54:54;;;;;;;6.80;6.38;;;29.10;99.90;;;;;;5057990;28;20324;-51
2022/08/30 11:57:30;;;;;;;5.88;5.53;;;29.00;99.90;;;;;;5058473;28;20282;-51
2022/08/30 12:00:06;;;;;;;7.00;6.65;;;28.90;99.90;;;;;;5070163;28;20270;-51
2022/08/30 12:02:54;;;;;;;6.57;6.28;;;29.00;99.90;;;;;;5070766;28;20196;-50
2022/08/30 12:05:51;;;;;;;6.32;6.03;;;29.10;99.90;;;;;;5064484;28;20605;-51
2022/08/30 12:08:47;;;;;;;6.47;6.18;;;29.20;99.90;;;;;;5060599;28;20201;-49
2022/08/30 12:11:59;;;;;;;6.18;5.85;;;29.00;99.90;;;;;;5058578;28;20819;-51
2022/08/30 12:14:50;;;;;;;7.80;7.20;;;29.00;99.90;;;;;;5068746;28;20280;-50
2022/08/30 12:20:21;;;;;;;8.48;7.97;;;29.10;99.90;;;;;;5056228;28;20419;-50
2022/08/30 12:22:48;;;;;;;8.55;7.90;;;29.00;99.90;;;;;;5072471;28;20197;-50
2022/08/30 12:25:27;;;;;;;7.72;7.32;;;28.90;99.90;;;;;;5072721;28;20201;-49
2022/08/30 12:28:13;;;;;;;8.57;8.05;;;29.00;99.90;;;;;;5070227;28;20266;-51
2022/08/30 12:30:41;;;;;;;7.00;6.65;;;28.80;99.90;;;;;;5070065;28;20478;-51
2022/08/30 12:33:12;;;;;;;7.22;6.93;;;28.90;99.90;;;;;;5068736;28;20194;-50
2022/08/30 12:35:42;;;;;;;6.82;6.40;;;28.80;99.90;;;;;;5070043;28;20219;-50
2022/08/30 12:38:18;;;;;;;7.13;6.82;;;28.60;99.90;;;;;;5072737;28;20197;-50
2022/08/30 12:40:54;;;;;;;7.07;6.68;;;28.50;99.90;;;;;;5073578;28;20695;-50
2022/08/30 12:43:29;;;;;;;6.80;6.40;;;28.40;99.90;;;;;;5071739;28;20201;-50
2022/08/30 12:46:02;;;;;;;6.68;6.38;;;28.40;99.90;;;;;;5073445;28;20222;-51
2022/08/30 12:48:33;;;;;;;7.57;7.07;;;28.30;99.90;;;;;;5067611;28;20236;-50
2022/08/30 12:51:00;;;;;;;7.85;7.35;;;28.20;99.90;;;;;;5072401;28;20201;-50
2022/08/30 12:53:30;;;;;;;7.15;6.78;;;28.00;99.90;;;;;;5072488;28;20232;-51
2022/08/30 12:56:00;;;;;;;6.68;6.38;;;28.20;99.90;;;;;;5072483;28;20239;-50
2022/08/30 12:58:40;;;;;;;7.43;7.00;;;28.20;99.90;;;;;;5066464;28;20663;-50
2022/08/30 13:01:19;;;;;;;7.30;6.90;;;28.40;99.90;;;;;;5064924;28;20289;-51
2022/08/30 13:03:56;;;;;;;7.07;6.57;;;28.50;99.90;;;;;;5067715;28;20201;-51
2022/08/30 13:06:42;;;;;;;6.70;6.28;;;28.60;99.90;;;;;;5070897;28;20213;-50
2022/08/30 13:09:11;;;;;;;6.80;6.50;;;28.60;99.90;;;;;;5071568;28;20872;-49
2022/08/30 13:11:38;;;;;;;7.45;6.72;;;28.70;99.90;;;;;;5071319;28;20299;-50
2022/08/30 13:14:32;;;;;;;7.15;6.85;;;28.70;99.90;;;;;;5068267;28;20283;-50